sensor_id;sensor_type;location;lat;lon;timestamp;P1;durP1;ratioP1;P2;durP2;ratioP2
34541;SDS011;20784;51.332;12.410;2023-02-01T00:04:45;11.05;;;3.85;;
34541;SDS011;20784;51.332;12.410;2023-02-01T00:07:22;10.35;;;4.40;;
34541;SDS011;20784;51.332;12.410;2023-02-01T00:09:51;17.55;;;4.35;;
34541;SDS011;20784;51.332;12.410;2023-02-01T00:12:19;9.98;;;4.30;;
34541;SDS011;20784;51.332;12.410;2023-02-01T00:14:45;19.40;;;4.25;;
34541;SDS011;20784;51.332;12.410;2023-02-01T00:17:14;13.27;;;3.53;;
34541;SDS011;20784;51.332;12.410;2023-02-01T00:19:42;14.27;;;3.47;;
34541;SDS011;20784;51.332;12.410;2023-02-01T00:22:11;12.77;;;3.50;;
34541;SDS011;20784;51.332;12.410;2023-02-01T00:24:40;9.18;;;3.92;;
34541;SDS011;20784;51.332;12.410;2023-02-01T00:27:06;12.63;;;4.10;;
34541;SDS011;20784;51.332;12.410;2023-02-01T00:29:31;13.13;;;4.03;;
34541;SDS011;20784;51.332;12.410;2023-02-01T00:32:00;15.90;;;4.80;;
34541;SDS011;20784;51.332;12.410;2023-02-01T00:34:26;14.65;;;4.35;;
34541;SDS011;20784;51.332;12.410;2023-02-01T00:36:52;7.93;;;3.05;;
34541;SDS011;20784;51.332;12.410;2023-02-01T00:39:18;11.40;;;3.67;;
34541;SDS011;20784;51.332;12.410;2023-02-01T00:41:46;12.05;;;3.40;;
34541;SDS011;20784;51.332;12.410;2023-02-01T00:44:12;10.05;;;3.50;;
34541;SDS011;20784;51.332;12.410;2023-02-01T00:46:37;12.30;;;3.10;;
34541;SDS011;20784;51.332;12.410;2023-02-01T00:49:03;11.98;;;3.17;;
34541;SDS011;20784;51.332;12.410;2023-02-01T00:51:32;10.80;;;2.88;;
34541;SDS011;20784;51.332;12.410;2023-02-01T00:53:57;11.65;;;3.05;;
34541;SDS011;20784;51.332;12.410;2023-02-01T00:56:26;15.95;;;2.90;;
34541;SDS011;20784;51.332;12.410;2023-02-01T00:58:55;12.23;;;2.42;;
34541;SDS011;20784;51.332;12.410;2023-02-01T01:01:25;15.75;;;2.75;;
34541;SDS011;20784;51.332;12.410;2023-02-01T01:03:54;8.82;;;2.25;;
34541;SDS011;20784;51.332;12.410;2023-02-01T01:06:23;14.95;;;3.20;;
34541;SDS011;20784;51.332;12.410;2023-02-01T01:08:54;10.90;;;2.90;;
34541;SDS011;20784;51.332;12.410;2023-02-01T01:11:29;14.85;;;3.20;;
34541;SDS011;20784;51.332;12.410;2023-02-01T01:14:22;14.10;;;3.75;;
34541;SDS011;20784;51.332;12.410;2023-02-01T01:20:24;11.68;;;3.50;;
34541;SDS011;20784;51.332;12.410;2023-02-01T01:23:16;14.30;;;3.72;;
34541;SDS011;20784;51.332;12.410;2023-02-01T01:25:44;15.77;;;3.90;;
34541;SDS011;20784;51.332;12.410;2023-02-01T01:31:46;14.02;;;3.63;;
34541;SDS011;20784;51.332;12.410;2023-02-01T01:34:52;11.88;;;3.33;;
34541;SDS011;20784;51.332;12.410;2023-02-01T01:41:19;12.18;;;3.30;;
34541;SDS011;20784;51.332;12.410;2023-02-01T01:55:29;14.50;;;3.53;;
34541;SDS011;20784;51.332;12.410;2023-02-01T01:58:08;14.52;;;3.33;;
34541;SDS011;20784;51.332;12.410;2023-02-01T02:01:07;13.27;;;3.47;;
34541;SDS011;20784;51.332;12.410;2023-02-01T02:03:40;14.52;;;3.15;;
34541;SDS011;20784;51.332;12.410;2023-02-01T02:06:56;12.93;;;2.70;;
34541;SDS011;20784;51.332;12.410;2023-02-01T02:09:28;18.30;;;3.63;;
34541;SDS011;20784;51.332;12.410;2023-02-01T02:12:19;13.75;;;3.08;;
34541;SDS011;20784;51.332;12.410;2023-02-01T02:21:14;11.40;;;2.90;;
34541;SDS011;20784;51.332;12.410;2023-02-01T02:23:59;9.80;;;2.47;;
34541;SDS011;20784;51.332;12.410;2023-02-01T02:36:48;17.48;;;3.47;;
34541;SDS011;20784;51.332;12.410;2023-02-01T02:46:40;12.98;;;3.05;;
34541;SDS011;20784;51.332;12.410;2023-02-01T02:49:42;14.50;;;3.15;;
34541;SDS011;20784;51.332;12.410;2023-02-01T02:52:42;17.27;;;3.05;;
34541;SDS011;20784;51.332;12.410;2023-02-01T02:55:37;13.18;;;3.45;;
34541;SDS011;20784;51.332;12.410;2023-02-01T02:58:07;12.15;;;2.80;;
34541;SDS011;20784;51.332;12.410;2023-02-01T03:00:53;10.85;;;2.90;;
34541;SDS011;20784;51.332;12.410;2023-02-01T03:03:41;12.68;;;3.65;;
34541;SDS011;20784;51.332;12.410;2023-02-01T03:06:33;16.35;;;3.47;;
34541;SDS011;20784;51.332;12.410;2023-02-01T03:09:00;13.57;;;3.05;;
34541;SDS011;20784;51.332;12.410;2023-02-01T03:11:31;15.77;;;3.00;;
34541;SDS011;20784;51.332;12.410;2023-02-01T03:14:26;11.75;;;3.13;;
34541;SDS011;20784;51.332;12.410;2023-02-01T03:17:34;16.17;;;3.03;;
34541;SDS011;20784;51.332;12.410;2023-02-01T03:20:02;17.77;;;3.22;;
34541;SDS011;20784;51.332;12.410;2023-02-01T03:22:37;16.38;;;2.95;;
34541;SDS011;20784;51.332;12.410;2023-02-01T03:25:05;10.23;;;2.97;;
34541;SDS011;20784;51.332;12.410;2023-02-01T03:27:52;13.98;;;3.03;;
34541;SDS011;20784;51.332;12.410;2023-02-01T03:30:33;12.43;;;2.88;;
34541;SDS011;20784;51.332;12.410;2023-02-01T03:33:06;18.48;;;3.65;;
34541;SDS011;20784;51.332;12.410;2023-02-01T03:41:58;12.73;;;3.53;;
34541;SDS011;20784;51.332;12.410;2023-02-01T03:44:57;10.57;;;2.55;;
34541;SDS011;20784;51.332;12.410;2023-02-01T03:47:45;16.92;;;3.20;;
34541;SDS011;20784;51.332;12.410;2023-02-01T03:53:28;20.98;;;3.80;;
34541;SDS011;20784;51.332;12.410;2023-02-01T03:56:14;15.13;;;3.17;;
34541;SDS011;20784;51.332;12.410;2023-02-01T04:05:21;11.93;;;3.03;;
34541;SDS011;20784;51.332;12.410;2023-02-01T04:08:25;19.38;;;3.42;;
34541;SDS011;20784;51.332;12.410;2023-02-01T04:21:08;14.55;;;3.55;;
34541;SDS011;20784;51.332;12.410;2023-02-01T04:23:55;14.95;;;2.85;;
34541;SDS011;20784;51.332;12.410;2023-02-01T04:26:30;15.02;;;3.65;;
34541;SDS011;20784;51.332;12.410;2023-02-01T04:29:08;15.27;;;3.00;;
34541;SDS011;20784;51.332;12.410;2023-02-01T04:32:00;12.63;;;3.10;;
34541;SDS011;20784;51.332;12.410;2023-02-01T04:34:30;12.40;;;3.05;;
34541;SDS011;20784;51.332;12.410;2023-02-01T04:37:14;15.68;;;3.25;;
34541;SDS011;20784;51.332;12.410;2023-02-01T04:39:45;20.02;;;3.38;;
34541;SDS011;20784;51.332;12.410;2023-02-01T04:42:25;16.98;;;3.10;;
34541;SDS011;20784;51.332;12.410;2023-02-01T04:45:13;17.00;;;3.30;;
34541;SDS011;20784;51.332;12.410;2023-02-01T04:47:47;20.52;;;3.53;;
34541;SDS011;20784;51.332;12.410;2023-02-01T04:50:21;16.67;;;3.95;;
34541;SDS011;20784;51.332;12.410;2023-02-01T04:52:52;15.38;;;2.92;;
34541;SDS011;20784;51.332;12.410;2023-02-01T05:01:56;17.83;;;3.65;;
34541;SDS011;20784;51.332;12.410;2023-02-01T05:04:38;17.58;;;3.25;;
34541;SDS011;20784;51.332;12.410;2023-02-01T05:07:12;19.30;;;4.32;;
34541;SDS011;20784;51.332;12.410;2023-02-01T05:09:40;14.20;;;3.03;;
34541;SDS011;20784;51.332;12.410;2023-02-01T05:12:15;13.48;;;3.33;;
34541;SDS011;20784;51.332;12.410;2023-02-01T05:15:13;12.88;;;3.25;;
34541;SDS011;20784;51.332;12.410;2023-02-01T05:17:42;11.27;;;3.10;;
34541;SDS011;20784;51.332;12.410;2023-02-01T05:20:11;13.25;;;3.47;;
34541;SDS011;20784;51.332;12.410;2023-02-01T05:22:48;19.57;;;4.03;;
34541;SDS011;20784;51.332;12.410;2023-02-01T05:28:07;19.90;;;3.50;;
34541;SDS011;20784;51.332;12.410;2023-02-01T05:34:05;18.63;;;3.80;;
34541;SDS011;20784;51.332;12.410;2023-02-01T05:36:58;23.65;;;4.18;;
34541;SDS011;20784;51.332;12.410;2023-02-01T05:39:27;18.33;;;3.33;;
34541;SDS011;20784;51.332;12.410;2023-02-01T05:42:03;15.65;;;4.35;;
34541;SDS011;20784;51.332;12.410;2023-02-01T05:47:10;10.83;;;3.10;;
34541;SDS011;20784;51.332;12.410;2023-02-01T05:49:46;12.45;;;2.80;;
34541;SDS011;20784;51.332;12.410;2023-02-01T05:52:11;19.83;;;4.47;;
34541;SDS011;20784;51.332;12.410;2023-02-01T05:54:40;16.65;;;3.60;;
34541;SDS011;20784;51.332;12.410;2023-02-01T06:00:23;26.95;;;4.80;;
34541;SDS011;20784;51.332;12.410;2023-02-01T06:02:49;12.27;;;3.55;;
34541;SDS011;20784;51.332;12.410;2023-02-01T06:05:15;14.93;;;5.00;;
34541;SDS011;20784;51.332;12.410;2023-02-01T06:07:43;22.17;;;6.70;;
34541;SDS011;20784;51.332;12.410;2023-02-01T06:10:09;15.02;;;3.97;;
34541;SDS011;20784;51.332;12.410;2023-02-01T06:12:35;15.63;;;3.28;;
34541;SDS011;20784;51.332;12.410;2023-02-01T06:15:01;14.90;;;3.42;;
34541;SDS011;20784;51.332;12.410;2023-02-01T06:17:27;9.13;;;2.78;;
34541;SDS011;20784;51.332;12.410;2023-02-01T06:19:53;8.63;;;2.63;;
34541;SDS011;20784;51.332;12.410;2023-02-01T06:22:23;13.20;;;3.50;;
34541;SDS011;20784;51.332;12.410;2023-02-01T06:25:08;18.13;;;3.08;;
34541;SDS011;20784;51.332;12.410;2023-02-01T06:27:35;9.65;;;2.83;;
34541;SDS011;20784;51.332;12.410;2023-02-01T06:30:13;18.75;;;3.33;;
34541;SDS011;20784;51.332;12.410;2023-02-01T06:33:16;11.70;;;3.05;;
34541;SDS011;20784;51.332;12.410;2023-02-01T06:36:00;10.93;;;2.90;;
34541;SDS011;20784;51.332;12.410;2023-02-01T06:38:29;15.30;;;3.00;;
34541;SDS011;20784;51.332;12.410;2023-02-01T06:41:03;16.80;;;3.55;;
34541;SDS011;20784;51.332;12.410;2023-02-01T06:43:30;15.18;;;3.10;;
34541;SDS011;20784;51.332;12.410;2023-02-01T06:46:00;23.13;;;3.55;;
34541;SDS011;20784;51.332;12.410;2023-02-01T06:48:27;14.63;;;3.80;;
34541;SDS011;20784;51.332;12.410;2023-02-01T06:51:02;12.50;;;3.63;;
34541;SDS011;20784;51.332;12.410;2023-02-01T06:53:45;15.85;;;3.80;;
34541;SDS011;20784;51.332;12.410;2023-02-01T06:56:10;12.25;;;3.08;;
34541;SDS011;20784;51.332;12.410;2023-02-01T06:58:36;13.85;;;3.63;;
34541;SDS011;20784;51.332;12.410;2023-02-01T07:01:04;9.25;;;3.05;;
34541;SDS011;20784;51.332;12.410;2023-02-01T07:03:34;15.15;;;3.92;;
34541;SDS011;20784;51.332;12.410;2023-02-01T07:05:59;13.10;;;3.80;;
34541;SDS011;20784;51.332;12.410;2023-02-01T07:08:35;12.13;;;2.92;;
34541;SDS011;20784;51.332;12.410;2023-02-01T07:11:17;20.08;;;4.25;;
34541;SDS011;20784;51.332;12.410;2023-02-01T07:14:16;21.15;;;3.30;;
34541;SDS011;20784;51.332;12.410;2023-02-01T07:16:41;13.25;;;3.35;;
34541;SDS011;20784;51.332;12.410;2023-02-01T07:19:33;21.38;;;3.72;;
34541;SDS011;20784;51.332;12.410;2023-02-01T07:22:28;18.77;;;3.13;;
34541;SDS011;20784;51.332;12.410;2023-02-01T07:25:10;14.65;;;3.20;;
34541;SDS011;20784;51.332;12.410;2023-02-01T07:27:41;18.85;;;4.05;;
34541;SDS011;20784;51.332;12.410;2023-02-01T07:30:14;21.17;;;3.50;;
34541;SDS011;20784;51.332;12.410;2023-02-01T07:35:21;22.48;;;4.43;;
34541;SDS011;20784;51.332;12.410;2023-02-01T07:37:47;16.05;;;3.38;;
34541;SDS011;20784;51.332;12.410;2023-02-01T07:40:50;15.98;;;3.60;;
34541;SDS011;20784;51.332;12.410;2023-02-01T07:43:16;20.23;;;3.05;;
34541;SDS011;20784;51.332;12.410;2023-02-01T07:45:42;15.68;;;4.32;;
34541;SDS011;20784;51.332;12.410;2023-02-01T07:48:16;22.05;;;4.38;;
34541;SDS011;20784;51.332;12.410;2023-02-01T07:57:17;14.60;;;4.22;;
34541;SDS011;20784;51.332;12.410;2023-02-01T08:00:25;17.58;;;3.70;;
34541;SDS011;20784;51.332;12.410;2023-02-01T08:06:22;16.52;;;3.70;;
34541;SDS011;20784;51.332;12.410;2023-02-01T08:09:14;15.65;;;3.75;;
34541;SDS011;20784;51.332;12.410;2023-02-01T08:11:43;19.95;;;3.40;;
34541;SDS011;20784;51.332;12.410;2023-02-01T08:27:45;16.70;;;4.15;;
34541;SDS011;20784;51.332;12.410;2023-02-01T08:40:56;13.45;;;3.20;;
34541;SDS011;20784;51.332;12.410;2023-02-01T08:43:24;13.65;;;3.38;;
34541;SDS011;20784;51.332;12.410;2023-02-01T08:45:50;11.85;;;2.83;;
34541;SDS011;20784;51.332;12.410;2023-02-01T10:24:42;15.20;;;3.63;;
34541;SDS011;20784;51.332;12.410;2023-02-01T10:27:32;11.43;;;3.38;;
34541;SDS011;20784;51.332;12.410;2023-02-01T10:30:05;15.68;;;3.42;;
34541;SDS011;20784;51.332;12.410;2023-02-01T10:32:55;19.13;;;4.25;;
34541;SDS011;20784;51.332;12.410;2023-02-01T10:35:35;16.73;;;3.85;;
34541;SDS011;20784;51.332;12.410;2023-02-01T10:38:03;16.70;;;4.20;;
34541;SDS011;20784;51.332;12.410;2023-02-01T10:40:51;20.63;;;3.78;;
34541;SDS011;20784;51.332;12.410;2023-02-01T10:44:10;21.38;;;3.92;;
34541;SDS011;20784;51.332;12.410;2023-02-01T10:56:43;13.65;;;2.95;;
34541;SDS011;20784;51.332;12.410;2023-02-01T10:59:56;14.60;;;3.33;;
34541;SDS011;20784;51.332;12.410;2023-02-01T11:06:21;10.65;;;2.28;;
34541;SDS011;20784;51.332;12.410;2023-02-01T11:13:08;11.93;;;2.35;;
34541;SDS011;20784;51.332;12.410;2023-02-01T11:15:47;10.55;;;2.25;;
34541;SDS011;20784;51.332;12.410;2023-02-01T11:18:43;13.60;;;2.75;;
34541;SDS011;20784;51.332;12.410;2023-02-01T11:21:09;14.18;;;2.70;;
34541;SDS011;20784;51.332;12.410;2023-02-01T11:23:40;8.57;;;2.53;;
34541;SDS011;20784;51.332;12.410;2023-02-01T11:26:19;11.27;;;2.55;;
34541;SDS011;20784;51.332;12.410;2023-02-01T11:29:02;10.07;;;3.00;;
34541;SDS011;20784;51.332;12.410;2023-02-01T11:31:32;13.60;;;3.10;;
34541;SDS011;20784;51.332;12.410;2023-02-01T11:34:17;13.80;;;3.00;;
34541;SDS011;20784;51.332;12.410;2023-02-01T11:36:56;12.43;;;2.60;;
34541;SDS011;20784;51.332;12.410;2023-02-01T11:46:09;8.45;;;2.03;;
34541;SDS011;20784;51.332;12.410;2023-02-01T11:48:53;12.70;;;2.65;;
34541;SDS011;20784;51.332;12.410;2023-02-01T11:52:17;14.00;;;2.75;;
34541;SDS011;20784;51.332;12.410;2023-02-01T12:07:27;11.45;;;2.92;;
34541;SDS011;20784;51.332;12.410;2023-02-01T12:10:23;14.45;;;2.70;;
34541;SDS011;20784;51.332;12.410;2023-02-01T12:16:48;13.57;;;3.13;;
34541;SDS011;20784;51.332;12.410;2023-02-01T12:34:16;13.32;;;2.80;;
34541;SDS011;20784;51.332;12.410;2023-02-01T12:42:46;9.73;;;2.75;;
34541;SDS011;20784;51.332;12.410;2023-02-01T12:47:47;9.95;;;2.90;;
34541;SDS011;20784;51.332;12.410;2023-02-01T12:50:33;8.05;;;2.33;;
34541;SDS011;20784;51.332;12.410;2023-02-01T12:53:29;16.73;;;5.63;;
34541;SDS011;20784;51.332;12.410;2023-02-01T12:56:16;12.90;;;5.30;;
34541;SDS011;20784;51.332;12.410;2023-02-01T12:59:08;17.92;;;8.20;;
34541;SDS011;20784;51.332;12.410;2023-02-01T13:40:46;11.82;;;2.58;;
34541;SDS011;20784;51.332;12.410;2023-02-01T13:43:30;15.32;;;3.15;;
34541;SDS011;20784;51.332;12.410;2023-02-01T13:46:15;11.30;;;2.88;;
34541;SDS011;20784;51.332;12.410;2023-02-01T13:48:54;13.07;;;2.30;;
34541;SDS011;20784;51.332;12.410;2023-02-01T13:54:49;14.20;;;2.58;;
34541;SDS011;20784;51.332;12.410;2023-02-01T13:57:52;10.57;;;2.75;;
34541;SDS011;20784;51.332;12.410;2023-02-01T14:04:03;10.30;;;2.90;;
34541;SDS011;20784;51.332;12.410;2023-02-01T14:16:14;9.77;;;2.25;;
34541;SDS011;20784;51.332;12.410;2023-02-01T14:26:12;8.85;;;2.78;;
34541;SDS011;20784;51.332;12.410;2023-02-01T14:35:28;12.02;;;2.70;;
34541;SDS011;20784;51.332;12.410;2023-02-01T14:41:22;11.90;;;2.85;;
34541;SDS011;20784;51.332;12.410;2023-02-01T14:44:38;11.40;;;2.75;;
34541;SDS011;20784;51.332;12.410;2023-02-01T15:04:24;13.02;;;2.60;;
34541;SDS011;20784;51.332;12.410;2023-02-01T15:07:17;13.73;;;3.58;;
34541;SDS011;20784;51.332;12.410;2023-02-01T15:09:46;13.73;;;2.90;;
34541;SDS011;20784;51.332;12.410;2023-02-01T15:15:23;8.75;;;2.58;;
34541;SDS011;20784;51.332;12.410;2023-02-01T15:18:01;9.68;;;3.22;;
34541;SDS011;20784;51.332;12.410;2023-02-01T15:20:28;9.88;;;3.25;;
34541;SDS011;20784;51.332;12.410;2023-02-01T15:23:04;10.48;;;3.30;;
34541;SDS011;20784;51.332;12.410;2023-02-01T15:25:44;12.68;;;3.20;;
34541;SDS011;20784;51.332;12.410;2023-02-01T15:28:23;12.00;;;2.90;;
34541;SDS011;20784;51.332;12.410;2023-02-01T15:31:30;14.95;;;3.33;;
34541;SDS011;20784;51.332;12.410;2023-02-01T15:41:21;11.38;;;3.20;;
34541;SDS011;20784;51.332;12.410;2023-02-01T15:44:32;13.20;;;3.28;;
34541;SDS011;20784;51.332;12.410;2023-02-01T15:47:24;8.05;;;2.50;;
34541;SDS011;20784;51.332;12.410;2023-02-01T15:56:08;14.15;;;4.78;;
34541;SDS011;20784;51.332;12.410;2023-02-01T16:21:04;1.35;;;0.70;;
34541;SDS011;20784;51.332;12.410;2023-02-01T16:23:47;2.20;;;0.80;;
34541;SDS011;20784;51.332;12.410;2023-02-01T16:26:59;3.47;;;1.08;;
34541;SDS011;20784;51.332;12.410;2023-02-01T16:29:36;0.98;;;0.90;;
34541;SDS011;20784;51.332;12.410;2023-02-01T16:32:04;1.02;;;0.73;;
34541;SDS011;20784;51.332;12.410;2023-02-01T16:34:31;1.77;;;0.80;;
34541;SDS011;20784;51.332;12.410;2023-02-01T16:37:09;2.42;;;0.77;;
34541;SDS011;20784;51.332;12.410;2023-02-01T16:39:50;3.40;;;0.90;;
34541;SDS011;20784;51.332;12.410;2023-02-01T16:42:24;1.30;;;0.90;;
34541;SDS011;20784;51.332;12.410;2023-02-01T16:47:33;1.90;;;0.95;;
34541;SDS011;20784;51.332;12.410;2023-02-01T16:50:48;6.28;;;2.78;;
34541;SDS011;20784;51.332;12.410;2023-02-01T16:53:46;4.60;;;1.65;;
34541;SDS011;20784;51.332;12.410;2023-02-01T16:56:17;3.95;;;1.15;;
34541;SDS011;20784;51.332;12.410;2023-02-01T16:58:54;3.30;;;1.00;;
34541;SDS011;20784;51.332;12.410;2023-02-01T17:01:37;3.03;;;1.08;;
34541;SDS011;20784;51.332;12.410;2023-02-01T17:04:14;2.30;;;0.75;;
34541;SDS011;20784;51.332;12.410;2023-02-01T17:06:41;3.40;;;0.93;;
34541;SDS011;20784;51.332;12.410;2023-02-01T17:09:14;4.93;;;0.82;;
34541;SDS011;20784;51.332;12.410;2023-02-01T17:11:42;4.27;;;1.20;;
34541;SDS011;20784;51.332;12.410;2023-02-01T17:14:18;1.33;;;1.05;;
34541;SDS011;20784;51.332;12.410;2023-02-01T17:16:48;6.80;;;1.42;;
34541;SDS011;20784;51.332;12.410;2023-02-01T17:19:21;4.70;;;1.35;;
34541;SDS011;20784;51.332;12.410;2023-02-01T17:21:51;2.90;;;1.27;;
34541;SDS011;20784;51.332;12.410;2023-02-01T17:24:58;3.05;;;1.10;;
34541;SDS011;20784;51.332;12.410;2023-02-01T17:27:30;3.47;;;1.20;;
34541;SDS011;20784;51.332;12.410;2023-02-01T17:29:59;3.42;;;1.33;;
34541;SDS011;20784;51.332;12.410;2023-02-01T17:32:40;2.35;;;1.00;;
34541;SDS011;20784;51.332;12.410;2023-02-01T17:35:26;3.28;;;1.30;;
34541;SDS011;20784;51.332;12.410;2023-02-01T17:37:55;2.15;;;1.13;;
34541;SDS011;20784;51.332;12.410;2023-02-01T17:40:22;3.40;;;0.85;;
34541;SDS011;20784;51.332;12.410;2023-02-01T17:45:46;6.30;;;2.90;;
34541;SDS011;20784;51.332;12.410;2023-02-01T17:48:19;6.28;;;1.50;;
34541;SDS011;20784;51.332;12.410;2023-02-01T17:50:46;2.05;;;1.30;;
34541;SDS011;20784;51.332;12.410;2023-02-01T17:53:16;5.63;;;1.65;;
34541;SDS011;20784;51.332;12.410;2023-02-01T17:58:33;8.38;;;1.40;;
34541;SDS011;20784;51.332;12.410;2023-02-01T18:01:41;4.53;;;1.00;;
34541;SDS011;20784;51.332;12.410;2023-02-01T18:04:20;2.70;;;1.00;;
34541;SDS011;20784;51.332;12.410;2023-02-01T18:06:56;2.97;;;1.00;;
34541;SDS011;20784;51.332;12.410;2023-02-01T18:09:22;1.38;;;1.00;;
34541;SDS011;20784;51.332;12.410;2023-02-01T18:11:47;12.85;;;4.70;;
34541;SDS011;20784;51.332;12.410;2023-02-01T18:14:26;6.00;;;3.13;;
34541;SDS011;20784;51.332;12.410;2023-02-01T18:16:56;5.68;;;1.80;;
34541;SDS011;20784;51.332;12.410;2023-02-01T18:19:22;2.28;;;1.20;;
34541;SDS011;20784;51.332;12.410;2023-02-01T18:21:47;5.25;;;1.83;;
34541;SDS011;20784;51.332;12.410;2023-02-01T18:24:23;1.90;;;1.20;;
34541;SDS011;20784;51.332;12.410;2023-02-01T18:26:57;1.85;;;1.50;;
34541;SDS011;20784;51.332;12.410;2023-02-01T18:29:56;2.60;;;1.55;;
34541;SDS011;20784;51.332;12.410;2023-02-01T18:32:53;3.95;;;1.73;;
34541;SDS011;20784;51.332;12.410;2023-02-01T18:35:31;8.93;;;1.77;;
34541;SDS011;20784;51.332;12.410;2023-02-01T18:38:04;4.93;;;1.58;;
34541;SDS011;20784;51.332;12.410;2023-02-01T18:40:52;3.47;;;1.50;;
34541;SDS011;20784;51.332;12.410;2023-02-01T18:43:34;2.85;;;1.35;;
34541;SDS011;20784;51.332;12.410;2023-02-01T18:49:27;2.60;;;1.67;;
34541;SDS011;20784;51.332;12.410;2023-02-01T18:51:56;13.27;;;5.75;;
34541;SDS011;20784;51.332;12.410;2023-02-01T18:54:45;10.68;;;5.78;;
34541;SDS011;20784;51.332;12.410;2023-02-01T18:57:25;3.33;;;2.13;;
34541;SDS011;20784;51.332;12.410;2023-02-01T19:00:30;5.20;;;2.30;;
34541;SDS011;20784;51.332;12.410;2023-02-01T19:09:15;4.85;;;1.55;;
34541;SDS011;20784;51.332;12.410;2023-02-01T19:11:47;3.88;;;1.45;;
34541;SDS011;20784;51.332;12.410;2023-02-01T19:17:19;3.35;;;1.15;;
34541;SDS011;20784;51.332;12.410;2023-02-01T19:23:25;5.82;;;1.30;;
34541;SDS011;20784;51.332;12.410;2023-02-01T19:26:40;6.43;;;1.50;;
34541;SDS011;20784;51.332;12.410;2023-02-01T19:29:39;3.58;;;1.33;;
34541;SDS011;20784;51.332;12.410;2023-02-01T19:35:09;4.78;;;1.58;;
34541;SDS011;20784;51.332;12.410;2023-02-01T19:40:24;2.60;;;1.02;;
34541;SDS011;20784;51.332;12.410;2023-02-01T19:42:53;7.60;;;1.60;;
34541;SDS011;20784;51.332;12.410;2023-02-01T19:48:29;8.68;;;1.70;;
34541;SDS011;20784;51.332;12.410;2023-02-01T19:51:08;4.38;;;1.20;;
34541;SDS011;20784;51.332;12.410;2023-02-01T19:53:52;5.82;;;1.17;;
34541;SDS011;20784;51.332;12.410;2023-02-01T19:56:20;7.85;;;1.35;;
34541;SDS011;20784;51.332;12.410;2023-02-01T19:59:02;5.15;;;1.30;;
34541;SDS011;20784;51.332;12.410;2023-02-01T20:01:44;3.10;;;1.33;;
34541;SDS011;20784;51.332;12.410;2023-02-01T20:04:16;4.65;;;1.13;;
34541;SDS011;20784;51.332;12.410;2023-02-01T20:06:45;3.42;;;1.10;;
34541;SDS011;20784;51.332;12.410;2023-02-01T20:09:22;7.22;;;1.50;;
34541;SDS011;20784;51.332;12.410;2023-02-01T20:12:13;6.20;;;1.35;;
34541;SDS011;20784;51.332;12.410;2023-02-01T20:14:43;5.65;;;1.27;;
34541;SDS011;20784;51.332;12.410;2023-02-01T20:17:20;3.63;;;1.30;;
34541;SDS011;20784;51.332;12.410;2023-02-01T20:19:57;2.35;;;1.23;;
34541;SDS011;20784;51.332;12.410;2023-02-01T20:22:25;3.78;;;1.60;;
34541;SDS011;20784;51.332;12.410;2023-02-01T20:25:01;7.45;;;1.50;;
34541;SDS011;20784;51.332;12.410;2023-02-01T20:27:37;6.80;;;1.70;;
34541;SDS011;20784;51.332;12.410;2023-02-01T20:30:12;7.95;;;1.98;;
34541;SDS011;20784;51.332;12.410;2023-02-01T20:32:52;8.93;;;1.73;;
34541;SDS011;20784;51.332;12.410;2023-02-01T20:35:21;5.95;;;1.75;;
34541;SDS011;20784;51.332;12.410;2023-02-01T20:37:49;5.13;;;1.80;;
34541;SDS011;20784;51.332;12.410;2023-02-01T20:40:28;3.65;;;1.55;;
34541;SDS011;20784;51.332;12.410;2023-02-01T20:43:11;7.22;;;2.63;;
34541;SDS011;20784;51.332;12.410;2023-02-01T20:45:50;5.65;;;2.20;;
34541;SDS011;20784;51.332;12.410;2023-02-01T20:48:23;6.30;;;1.77;;
34541;SDS011;20784;51.332;12.410;2023-02-01T20:51:14;6.13;;;2.72;;
34541;SDS011;20784;51.332;12.410;2023-02-01T20:53:54;5.50;;;2.00;;
34541;SDS011;20784;51.332;12.410;2023-02-01T21:00:14;5.78;;;2.03;;
34541;SDS011;20784;51.332;12.410;2023-02-01T21:07:16;5.00;;;2.00;;
34541;SDS011;20784;51.332;12.410;2023-02-01T21:10:10;7.57;;;2.65;;
34541;SDS011;20784;51.332;12.410;2023-02-01T21:12:46;4.82;;;1.88;;
34541;SDS011;20784;51.332;12.410;2023-02-01T21:15:27;5.18;;;1.80;;
34541;SDS011;20784;51.332;12.410;2023-02-01T21:18:26;5.45;;;1.70;;
34541;SDS011;20784;51.332;12.410;2023-02-01T21:21:35;16.33;;;4.55;;
34541;SDS011;20784;51.332;12.410;2023-02-01T21:27:43;10.50;;;2.05;;
34541;SDS011;20784;51.332;12.410;2023-02-01T21:33:46;6.20;;;2.13;;
34541;SDS011;20784;51.332;12.410;2023-02-01T21:36:19;9.57;;;2.35;;
34541;SDS011;20784;51.332;12.410;2023-02-01T21:38:58;6.95;;;1.92;;
34541;SDS011;20784;51.332;12.410;2023-02-01T21:41:44;9.70;;;2.10;;
34541;SDS011;20784;51.332;12.410;2023-02-01T21:44:31;6.82;;;2.53;;
34541;SDS011;20784;51.332;12.410;2023-02-01T21:46:59;11.23;;;2.80;;
34541;SDS011;20784;51.332;12.410;2023-02-01T21:49:27;7.10;;;2.00;;
34541;SDS011;20784;51.332;12.410;2023-02-01T21:52:20;7.38;;;2.47;;
34541;SDS011;20784;51.332;12.410;2023-02-01T21:54:54;7.95;;;2.00;;
34541;SDS011;20784;51.332;12.410;2023-02-01T21:57:46;12.25;;;1.85;;
34541;SDS011;20784;51.332;12.410;2023-02-01T22:00:16;7.22;;;2.13;;
34541;SDS011;20784;51.332;12.410;2023-02-01T22:02:47;4.78;;;1.75;;
34541;SDS011;20784;51.332;12.410;2023-02-01T22:05:18;8.50;;;1.93;;
34541;SDS011;20784;51.332;12.410;2023-02-01T22:07:46;8.40;;;1.73;;
34541;SDS011;20784;51.332;12.410;2023-02-01T22:10:16;12.30;;;2.08;;
34541;SDS011;20784;51.332;12.410;2023-02-01T22:12:44;5.47;;;2.10;;
34541;SDS011;20784;51.332;12.410;2023-02-01T22:15:12;4.63;;;1.73;;
34541;SDS011;20784;51.332;12.410;2023-02-01T22:17:49;2.58;;;1.30;;
34541;SDS011;20784;51.332;12.410;2023-02-01T22:20:18;7.93;;;1.92;;
34541;SDS011;20784;51.332;12.410;2023-02-01T22:23:01;6.82;;;1.90;;
34541;SDS011;20784;51.332;12.410;2023-02-01T22:26:05;8.88;;;1.60;;
34541;SDS011;20784;51.332;12.410;2023-02-01T22:31:53;7.22;;;2.10;;
34541;SDS011;20784;51.332;12.410;2023-02-01T22:34:32;8.20;;;1.42;;
34541;SDS011;20784;51.332;12.410;2023-02-01T22:37:24;4.55;;;1.42;;
34541;SDS011;20784;51.332;12.410;2023-02-01T22:40:42;2.92;;;1.20;;
34541;SDS011;20784;51.332;12.410;2023-02-01T22:43:14;4.30;;;1.50;;
34541;SDS011;20784;51.332;12.410;2023-02-01T22:55:17;9.98;;;2.30;;
34541;SDS011;20784;51.332;12.410;2023-02-01T22:57:43;7.57;;;1.83;;
34541;SDS011;20784;51.332;12.410;2023-02-01T23:00:28;4.88;;;1.60;;
34541;SDS011;20784;51.332;12.410;2023-02-01T23:03:05;6.93;;;2.22;;
34541;SDS011;20784;51.332;12.410;2023-02-01T23:05:33;15.10;;;2.95;;
34541;SDS011;20784;51.332;12.410;2023-02-01T23:08:30;9.27;;;2.20;;
34541;SDS011;20784;51.332;12.410;2023-02-01T23:11:16;6.97;;;2.10;;
34541;SDS011;20784;51.332;12.410;2023-02-01T23:13:54;9.73;;;2.65;;
34541;SDS011;20784;51.332;12.410;2023-02-01T23:16:29;15.50;;;2.95;;
34541;SDS011;20784;51.332;12.410;2023-02-01T23:19:05;13.93;;;3.35;;
34541;SDS011;20784;51.332;12.410;2023-02-01T23:22:02;11.25;;;2.50;;
34541;SDS011;20784;51.332;12.410;2023-02-01T23:24:34;11.65;;;2.95;;
34541;SDS011;20784;51.332;12.410;2023-02-01T23:27:17;7.35;;;2.08;;
34541;SDS011;20784;51.332;12.410;2023-02-01T23:32:40;19.00;;;3.33;;
34541;SDS011;20784;51.332;12.410;2023-02-01T23:35:42;9.43;;;2.67;;